Latest Weather Observations for Neptune Island

IDS60801

Issued at 4:52 pm CDT Thursday 28 January 2021 (issued every 10 minutes, with the page automatically refreshed every 10 minutes)

About weather observations | Map of weather stations | Latest weather observations for SA | Other Formats
Station Details ID: 018115 Name: NEPTUNE ISLAND Lat: -35.34 Lon: 136.12 Height: 32.0 m
Data from the previous 72 hours. | See also: Recent months at Neptune Island
Date/Time
CDT
Temp
°C
App
Temp
°C
Dew
Point
°C
Rel
Hum
%
Delta-T
°C
Wind Press
QNH
hPa
Press
MSL
hPa
Rain since
9am
mm
Dir  Spd
km/h
Gust
km/h
Spd
kts
Gust
kts
28/04:30pm 18.5 - - - - E 13 17 7 9 1009.8 1009.7 1.0
28/04:00pm 18.4 - - - - SSE 9 13 5 7 1010.5 1010.4 0.8
28/03:30pm 18.2 - - - - ENE 17 22 9 12 1010.1 1010.0 0.6
28/03:00pm 18.1 - - - - E 15 17 8 9 1010.7 1010.6 0.4
28/02:30pm 18.4 - - - - SSE 13 15 7 8 1011.1 1011.0 0.0
28/02:00pm 17.9 - - - - SSW 19 22 10 12 1011.4 1011.3 0.0
28/01:30pm 18.6 - - - - SSW 13 17 7 9 1011.4 1011.3 0.0
28/01:00pm 19.0 - - - - N 6 7 3 4 1011.7 1011.6 0.0
28/12:30pm 18.9 - - - - NNE 15 20 8 11 1011.7 1011.6 0.0
28/12:00pm 19.4 - - - - E 2 9 1 5 1011.7 1011.6 0.0
28/11:30am 19.3 - - - - E 13 15 7 8 1011.6 1011.5 0.0
28/11:00am 19.3 - - - - E 19 22 10 12 1011.3 1011.2 0.0
28/10:30am 19.2 - - - - E 17 20 9 11 1011.5 1011.4 0.0
28/10:00am 19.1 - - - - E 22 26 12 14 1011.2 1011.1 0.0
28/09:30am 19.1 - - - - ESE 20 24 11 13 1011.5 1011.4 0.0
28/09:00am 18.9 - - - - ESE 20 24 11 13 1011.7 1011.6 0.0
28/08:30am 18.5 - - - - ESE 19 22 10 12 1011.7 1011.6 0.0
28/08:00am 18.3 - - - - ESE 22 28 12 15 1011.3 1011.2 0.0
28/07:30am 18.5 - - - - ESE 22 28 12 15 1011.4 1011.3 0.0
28/07:00am 17.8 - - - - ESE 24 32 13 17 1010.2 1010.1 0.0
28/06:30am 17.8 - - - - ESE 24 28 13 15 1010.7 1010.6 0.0
28/06:00am 17.6 - - - - ESE 17 20 9 11 1010.5 1010.4 0.0
28/05:30am 17.6 - - - - ESE 22 26 12 14 1010.3 1010.2 0.0
28/05:00am 17.4 - - - - ESE 20 28 11 15 1010.1 1010.0 0.0
28/04:30am 17.6 - - - - SE 24 30 13 16 1010.2 1010.1 0.0
28/04:00am 17.5 - - - - SE 26 32 14 17 1010.5 1010.4 0.0
28/03:30am 17.5 - - - - SE 28 32 15 17 1010.7 1010.6 0.0
28/03:00am 17.4 - - - - SE 26 32 14 17 1011.1 1011.0 0.0
28/02:30am 17.4 - - - - SE 26 30 14 16 1011.5 1011.4 0.0
28/02:00am 17.3 - - - - SE 28 33 15 18 1011.5 1011.4 0.0
28/01:30am 17.2 - - - - ESE 32 37 17 20 1011.4 1011.3 0.0
28/01:00am 17.2 - - - - ESE 30 37 16 20 1011.7 1011.6 0.0
28/12:30am 17.2 - - - - ESE 33 41 18 22 1011.7 1011.6 0.0
28/12:00am 17.2 - - - - ESE 35 41 19 22 1012.1 1012.1 0.0
 
Date/Time
CDT
Temp
°C
App
Temp
°C
Dew
Point
°C
Rel
Hum
%
Delta-T
°C
Wind Press
QNH
hPa
Press
MSL
hPa
Rain since
9am
mm
Dir  Spd
km/h
Gust
km/h
Spd
kts
Gust
kts
27/11:30pm 17.3 - - - - ESE 35 41 19 22 1011.8 1011.7 0.0
27/11:00pm 17.1 - - - - ESE 35 41 19 22 1012.2 1012.2 0.0
27/10:30pm 17.2 - - - - SE 35 43 19 23 1012.4 1012.4 0.0
27/10:00pm 17.4 - - - - SE 37 44 20 24 1012.4 1012.4 0.0
27/09:30pm 17.5 - - - - SE 39 48 21 26 1012.3 1012.3 0.0
27/09:00pm 17.6 - - - - SE 37 46 20 25 1012.2 1012.2 0.0
27/08:30pm 17.9 - - - - SE 41 48 22 26 1012.2 1012.2 0.0
27/08:00pm 18.0 - - - - SSE 41 50 22 27 1011.9 1011.9 0.0
27/07:30pm 18.1 - - - - SSE 39 46 21 25 1011.9 1011.9 0.0
27/07:00pm 18.3 - - - - SSE 37 46 20 25 1011.8 1011.7 0.0
27/06:30pm 19.1 - - - - SSE 39 46 21 25 1011.5 1011.4 0.0
27/06:00pm 20.0 - - - - SSE 22 33 12 18 1012.0 1012.0 0.0
27/05:30pm 21.1 - - - - ESE 24 30 13 16 1011.9 1011.9 0.0
27/05:00pm 21.1 - - - - ESE 30 35 16 19 1011.8 1011.7 0.0
27/04:30pm 21.2 - - - - ESE 28 33 15 18 1012.2 1012.2 0.0
27/04:00pm 19.6 - - - - ESE 20 24 11 13 1012.3 1012.3 0.0
27/03:30pm 20.2 - - - - ESE 20 24 11 13 1012.8 1012.8 0.0
27/03:00pm 20.7 - - - - E 28 33 15 18 1012.6 1012.6 0.0
27/02:30pm 21.0 - - - - ENE 28 33 15 18 1012.9 1012.9 0.0
27/02:00pm 21.1 - - - - E 28 35 15 19 1013.2 1013.2 0.0
27/01:30pm 21.1 - - - - ESE 32 39 17 21 1013.3 1013.3 0.0
27/01:00pm 20.7 - - - - E 35 44 19 24 1012.9 1012.9 0.0
27/12:30pm 20.6 - - - - ESE 35 46 19 25 1013.1 1013.1 0.0
27/12:00pm 19.7 - - - - ESE 35 44 19 24 1013.1 1013.1 0.0
27/11:30am 18.9 - - - - ESE 35 44 19 24 1013.3 1013.3 0.0
27/11:00am 18.3 - - - - ESE 39 48 21 26 1013.4 1013.4 0.0
27/10:30am 18.4 - - - - ESE 39 50 21 27 1013.3 1013.3 0.0
27/10:00am 17.4 - - - - ESE 37 46 20 25 1013.3 1013.3 0.0
27/09:30am 17.3 - - - - ESE 41 50 22 27 1013.3 1013.3 0.0
27/09:00am 17.4 - - - - E 41 54 22 29 1012.8 1012.8 0.2
27/08:30am 17.2 - - - - E 39 50 21 27 1012.5 1012.5 0.2
27/08:00am 16.9 - - - - ESE 41 52 22 28 1012.1 1012.1 0.2
27/07:30am 16.4 - - - - ESE 37 48 20 26 1012.5 1012.5 0.2
27/07:00am 16.1 - - - - ESE 39 46 21 25 1012.2 1012.2 0.2
27/06:30am 15.9 - - - - ESE 35 44 19 24 1012.0 1012.0 0.2
27/06:00am 15.9 - - - - ESE 35 43 19 23 1011.6 1011.5 0.2
27/05:30am 15.8 - - - - ESE 35 43 19 23 1011.4 1011.3 0.2
27/05:00am 15.6 - - - - ESE 30 35 16 19 1011.7 1011.6 0.2
27/04:30am 15.8 - - - - ESE 35 41 19 22 1011.7 1011.6 0.2
27/04:00am 15.7 - - - - SE 37 44 20 24 1011.6 1011.5 0.2
27/03:30am 16.0 - - - - ESE 35 44 19 24 1011.9 1011.9 0.2
27/03:00am 16.0 - - - - SE 39 46 21 25 1011.8 1011.7 0.2
27/02:30am 16.0 - - - - ESE 41 50 22 27 1011.6 1011.5 0.2
27/02:00am 16.2 - - - - ESE 41 48 22 26 1011.6 1011.5 0.2
27/01:30am 16.4 - - - - ESE 43 54 23 29 1011.6 1011.5 0.2
27/01:00am 16.6 - - - - ESE 43 50 23 27 1011.6 1011.5 0.2
27/12:30am 16.6 - - - - ESE 39 46 21 25 1011.5 1011.4 0.2
27/12:00am 16.6 - - - - ESE 43 52 23 28 1011.4 1011.3 0.2
 
Date/Time
CDT
Temp
°C
App
Temp
°C
Dew
Point
°C
Rel
Hum
%
Delta-T
°C
Wind Press
QNH
hPa
Press
MSL
hPa
Rain since
9am
mm
Dir  Spd
km/h
Gust
km/h
Spd
kts
Gust
kts
26/11:30pm 16.8 - - - - ESE 41 50 22 27 1011.5 1011.4 0.2
26/11:00pm 16.9 - - - - SE 43 50 23 27 1011.4 1011.3 0.2
26/10:30pm 16.9 - - - - SE 37 46 20 25 1011.2 1011.1 0.2
26/10:00pm 17.1 - - - - SE 41 46 22 25 1011.2 1011.1 0.2
26/09:30pm 17.4 - - - - SE 37 44 20 24 1010.8 1010.7 0.2
26/09:00pm 17.5 - - - - SE 37 46 20 25 1010.7 1010.6 0.2
26/08:30pm 17.6 - - - - SSE 41 48 22 26 1010.2 1010.1 0.2
26/08:00pm 17.6 - - - - SSE 43 50 23 27 1010.0 1009.9 0.2
26/07:30pm 17.9 - - - - SSE 39 46 21 25 1009.7 1009.6 0.2
26/07:00pm 18.4 - - - - SSE 39 46 21 25 1009.5 1009.4 0.2
26/06:30pm 18.3 - - - - SSE 37 44 20 24 1009.2 1009.1 0.2
26/06:00pm 18.6 - - - - SSE 35 43 19 23 1009.1 1009.0 0.2
26/05:30pm 19.2 - - - - SSE 33 39 18 21 1009.0 1008.9 0.2
26/05:00pm 19.6 - - - - SSE 33 39 18 21 1008.8 1008.7 0.2
26/04:30pm 20.0 - - - - SSE 28 35 15 19 1008.9 1008.8 0.2
26/04:00pm 20.0 - - - - SSE 28 33 15 18 1009.0 1008.9 0.2
26/03:30pm 20.1 - - - - SSE 28 33 15 18 1009.0 1008.9 0.2
26/03:00pm 20.6 - - - - SSE 24 30 13 16 1009.0 1008.9 0.2
26/02:30pm 20.2 - - - - SSE 22 26 12 14 1009.1 1009.0 0.2
26/02:00pm 20.2 - - - - SSE 19 24 10 13 1009.1 1009.0 0.2
26/01:30pm 19.8 - - - - SSE 20 24 11 13 1009.1 1009.0 0.2
26/01:00pm 20.1 - - - - SSE 22 26 12 14 1009.1 1009.0 0.2
26/12:30pm 19.9 - - - - S 24 28 13 15 1009.1 1009.0 0.2
26/12:00pm 19.3 - - - - SSE 24 30 13 16 1009.0 1008.9 0.2
26/11:30am 19.0 - - - - SSE 24 30 13 16 1008.7 1008.6 0.2
26/11:00am 18.9 - - - - S 26 32 14 17 1008.6 1008.5 0.2
26/10:30am 18.3 - - - - S 24 32 13 17 1008.5 1008.4 0.2
26/10:00am 17.8 - - - - S 26 32 14 17 1008.2 1008.1 0.2
26/09:30am 17.7 - - - - S 28 33 15 18 1007.8 1007.7 0.0
26/09:00am 17.7 - - - - S 30 35 16 19 1007.6 1007.5 11.2
26/08:30am 17.4 - - - - S 32 37 17 20 1007.4 1007.3 11.2
26/08:00am 17.4 - - - - S 32 39 17 21 1006.9 1006.8 11.2
26/07:30am 17.3 - - - - S 33 39 18 21 1006.3 1006.2 11.2
26/07:00am 17.0 - - - - S 35 39 19 21 1005.7 1005.6 11.2
26/06:30am 17.0 - - - - S 33 39 18 21 1005.4 1005.3 11.2
26/06:00am 17.0 - - - - S 35 41 19 22 1005.0 1004.9 11.2
26/05:30am 17.1 - - - - S 26 33 14 18 1005.3 1005.2 11.2
26/05:00am 17.1 - - - - S 30 35 16 19 1004.9 1004.8 11.2
26/04:30am 17.2 - - - - S 35 41 19 22 1004.5 1004.4 11.2
26/04:00am 17.4 - - - - S 30 35 16 19 1004.4 1004.3 11.2
26/03:30am 17.4 - - - - S 35 41 19 22 1004.3 1004.2 11.2
26/03:00am 17.5 - - - - S 26 32 14 17 1004.1 1004.0 11.2
26/02:30am 17.5 - - - - S 28 35 15 19 1004.3 1004.2 11.2
26/02:00am 17.4 - - - - S 32 37 17 20 1004.1 1004.0 11.2
26/01:30am 17.4 - - - - S 32 39 17 21 1004.2 1004.1 11.2
26/01:00am 17.6 - - - - S 39 48 21 26 1004.2 1004.1 11.2
26/12:30am 17.7 - - - - S 41 48 22 26 1004.3 1004.2 11.2
26/12:00am 17.7 - - - - S 43 50 23 27 1004.1 1004.0 11.2
 
Date/Time
CDT
Temp
°C
App
Temp
°C
Dew
Point
°C
Rel
Hum
%
Delta-T
°C
Wind Press
QNH
hPa
Press
MSL
hPa
Rain since
9am
mm
Dir  Spd
km/h
Gust
km/h
Spd
kts
Gust
kts
25/11:30pm 17.7 - - - - S 46 54 25 29 1003.7 1003.6 11.2
25/11:00pm 17.9 - - - - S 44 52 24 28 1003.6 1003.5 11.2
25/10:30pm 18.0 - - - - S 43 50 23 27 1003.5 1003.4 11.2
25/10:00pm 18.0 - - - - SSW 44 52 24 28 1002.9 1002.8 11.2
25/09:30pm 17.8 - - - - S 43 52 23 28 1002.3 1002.2 11.2
25/09:00pm 17.8 - - - - SSW 44 52 24 28 1002.1 1002.0 11.2
25/08:30pm 17.9 - - - - S 43 50 23 27 1001.5 1001.4 11.2
25/08:16pm 18.2 - - - - SSW 35 52 19 28 1001.3 1001.2 11.2
25/08:02pm 19.1 - - - - WSW 22 46 12 25 1001.3 1001.2 11.2
25/08:00pm 19.3 - - - - W 19 43 10 23 1001.4 1001.3 11.2
25/07:30pm 19.3 - - - - WNW 13 15 7 8 1001.2 1001.1 11.2
25/07:00pm 19.4 - - - - WSW 11 11 6 6 1000.8 1000.7 11.2
25/06:30pm 19.7 - - - - SE 6 7 3 4 1000.7 1000.6 11.2
25/06:00pm 19.8 - - - - SE 7 9 4 5 1000.8 1000.7 11.2
25/05:30pm 19.9 - - - - SE 7 9 4 5 1000.7 1000.6 11.2
25/05:00pm 20.2 - - - - SE 9 11 5 6 1000.5 1000.4 11.2

Other formats

Comma delimited format used in spreadsheet applications
http://www.bom.gov.au/fwo/IDS60801/IDS60801.94804.axf

JavaScript Object Notation format (JSON) in row-major order
http://www.bom.gov.au/fwo/IDS60801/IDS60801.94804.json

Data quality

Most of these data are generated automatically and are frequently updated. Quality checks on data are not normally performed. It is possible for incorrect values to appear. Refer to information at About Latest Weather Observations and please check the disclaimer before using these data.